sensor_id;sensor_type;location;lat;lon;timestamp;temperature;humidity
40828;DHT22;26549;50.918;5.338;2023-01-16T00:00:55;7.50;99.90
40828;DHT22;26549;50.918;5.338;2023-01-16T00:03:21;7.50;99.90
40828;DHT22;26549;50.918;5.338;2023-01-16T00:05:47;7.50;99.90
40828;DHT22;26549;50.918;5.338;2023-01-16T00:08:13;7.60;99.90
40828;DHT22;26549;50.918;5.338;2023-01-16T00:10:39;7.60;99.90
40828;DHT22;26549;50.918;5.338;2023-01-16T00:13:05;7.70;99.90
40828;DHT22;26549;50.918;5.338;2023-01-16T00:15:31;7.60;99.90
40828;DHT22;26549;50.918;5.338;2023-01-16T00:17:57;7.60;99.90
40828;DHT22;26549;50.918;5.338;2023-01-16T00:20:23;7.50;99.90
40828;DHT22;26549;50.918;5.338;2023-01-16T00:22:49;7.50;99.90
40828;DHT22;26549;50.918;5.338;2023-01-16T00:25:15;7.30;99.90
40828;DHT22;26549;50.918;5.338;2023-01-16T00:27:40;7.50;99.90
40828;DHT22;26549;50.918;5.338;2023-01-16T00:30:07;7.50;99.90
40828;DHT22;26549;50.918;5.338;2023-01-16T00:32:33;7.60;99.90
40828;DHT22;26549;50.918;5.338;2023-01-16T00:34:59;7.50;99.90
40828;DHT22;26549;50.918;5.338;2023-01-16T00:37:24;7.60;99.90
40828;DHT22;26549;50.918;5.338;2023-01-16T00:39:50;7.50;99.90
40828;DHT22;26549;50.918;5.338;2023-01-16T00:42:17;7.50;99.90
40828;DHT22;26549;50.918;5.338;2023-01-16T00:44:43;7.60;99.90
40828;DHT22;26549;50.918;5.338;2023-01-16T00:47:09;7.60;99.90
40828;DHT22;26549;50.918;5.338;2023-01-16T00:49:35;7.60;99.90
40828;DHT22;26549;50.918;5.338;2023-01-16T00:52:01;7.60;99.90
40828;DHT22;26549;50.918;5.338;2023-01-16T00:54:27;7.50;99.90
40828;DHT22;26549;50.918;5.338;2023-01-16T00:56:52;7.50;99.90
40828;DHT22;26549;50.918;5.338;2023-01-16T00:59:18;7.50;99.90
40828;DHT22;26549;50.918;5.338;2023-01-16T01:01:44;7.50;99.90
40828;DHT22;26549;50.918;5.338;2023-01-16T01:04:10;7.50;99.90
40828;DHT22;26549;50.918;5.338;2023-01-16T01:06:37;7.50;99.90
40828;DHT22;26549;50.918;5.338;2023-01-16T01:09:03;7.50;99.90
40828;DHT22;26549;50.918;5.338;2023-01-16T01:11:29;7.50;99.90
40828;DHT22;26549;50.918;5.338;2023-01-16T01:13:54;7.50;99.90
40828;DHT22;26549;50.918;5.338;2023-01-16T01:16:20;7.60;99.90
40828;DHT22;26549;50.918;5.338;2023-01-16T01:18:46;7.40;99.90
40828;DHT22;26549;50.918;5.338;2023-01-16T01:21:12;7.40;99.90
40828;DHT22;26549;50.918;5.338;2023-01-16T01:23:37;7.50;99.90
40828;DHT22;26549;50.918;5.338;2023-01-16T01:26:13;7.40;99.90
40828;DHT22;26549;50.918;5.338;2023-01-16T01:28:39;7.30;99.90
40828;DHT22;26549;50.918;5.338;2023-01-16T01:31:10;7.20;99.90
40828;DHT22;26549;50.918;5.338;2023-01-16T01:33:36;7.30;99.90
40828;DHT22;26549;50.918;5.338;2023-01-16T01:36:02;7.20;99.90
40828;DHT22;26549;50.918;5.338;2023-01-16T01:38:28;7.10;99.90
40828;DHT22;26549;50.918;5.338;2023-01-16T01:40:54;7.20;99.90
40828;DHT22;26549;50.918;5.338;2023-01-16T01:43:20;7.30;99.90
40828;DHT22;26549;50.918;5.338;2023-01-16T01:45:50;7.40;99.90
40828;DHT22;26549;50.918;5.338;2023-01-16T01:48:19;7.30;99.90
40828;DHT22;26549;50.918;5.338;2023-01-16T01:51:07;7.40;99.90
40828;DHT22;26549;50.918;5.338;2023-01-16T01:53:46;7.50;99.90
40828;DHT22;26549;50.918;5.338;2023-01-16T01:58:52;7.30;99.90
40828;DHT22;26549;50.918;5.338;2023-01-16T02:01:20;7.30;99.90
40828;DHT22;26549;50.918;5.338;2023-01-16T02:03:57;7.50;99.90
40828;DHT22;26549;50.918;5.338;2023-01-16T02:06:30;7.30;99.90
40828;DHT22;26549;50.918;5.338;2023-01-16T02:08:58;7.40;99.90
40828;DHT22;26549;50.918;5.338;2023-01-16T02:11:29;7.40;99.90
40828;DHT22;26549;50.918;5.338;2023-01-16T02:14:05;7.50;99.90
40828;DHT22;26549;50.918;5.338;2023-01-16T02:16:32;7.50;99.90
40828;DHT22;26549;50.918;5.338;2023-01-16T02:31:46;7.50;99.90
40828;DHT22;26549;50.918;5.338;2023-01-16T02:34:27;7.50;99.90
40828;DHT22;26549;50.918;5.338;2023-01-16T02:37:15;7.40;99.90
40828;DHT22;26549;50.918;5.338;2023-01-16T02:42:59;7.50;99.90
40828;DHT22;26549;50.918;5.338;2023-01-16T02:45:46;7.60;99.90
40828;DHT22;26549;50.918;5.338;2023-01-16T02:51:14;7.60;99.90
40828;DHT22;26549;50.918;5.338;2023-01-16T02:56:42;7.50;99.90
40828;DHT22;26549;50.918;5.338;2023-01-16T02:59:13;7.50;99.90
40828;DHT22;26549;50.918;5.338;2023-01-16T03:01:39;7.50;99.90
40828;DHT22;26549;50.918;5.338;2023-01-16T03:04:39;7.50;99.90
40828;DHT22;26549;50.918;5.338;2023-01-16T03:09:56;7.50;99.90
40828;DHT22;26549;50.918;5.338;2023-01-16T03:18:17;7.50;99.90
40828;DHT22;26549;50.918;5.338;2023-01-16T03:23:53;7.50;99.90
40828;DHT22;26549;50.918;5.338;2023-01-16T03:26:23;7.60;99.90
40828;DHT22;26549;50.918;5.338;2023-01-16T03:32:04;7.60;99.90
40828;DHT22;26549;50.918;5.338;2023-01-16T03:34:38;7.60;99.90
40828;DHT22;26549;50.918;5.338;2023-01-16T03:37:11;7.60;99.90
40828;DHT22;26549;50.918;5.338;2023-01-16T03:39:42;7.60;99.90
40828;DHT22;26549;50.918;5.338;2023-01-16T03:42:19;7.50;99.90
40828;DHT22;26549;50.918;5.338;2023-01-16T03:44:51;7.60;99.90
40828;DHT22;26549;50.918;5.338;2023-01-16T03:47:24;7.60;99.90
40828;DHT22;26549;50.918;5.338;2023-01-16T03:49:55;7.50;99.90
40828;DHT22;26549;50.918;5.338;2023-01-16T03:52:30;7.60;99.90
40828;DHT22;26549;50.918;5.338;2023-01-16T03:57:50;7.60;99.90
40828;DHT22;26549;50.918;5.338;2023-01-16T04:00:18;7.70;99.90
40828;DHT22;26549;50.918;5.338;2023-01-16T04:05:27;7.50;99.90
40828;DHT22;26549;50.918;5.338;2023-01-16T04:08:15;7.50;99.90
40828;DHT22;26549;50.918;5.338;2023-01-16T04:10:44;7.60;99.90
40828;DHT22;26549;50.918;5.338;2023-01-16T04:13:16;7.70;99.90
40828;DHT22;26549;50.918;5.338;2023-01-16T04:15:47;7.80;99.90
40828;DHT22;26549;50.918;5.338;2023-01-16T04:18:14;7.90;99.90
40828;DHT22;26549;50.918;5.338;2023-01-16T04:20:44;7.80;99.90
40828;DHT22;26549;50.918;5.338;2023-01-16T04:23:12;7.70;99.90
40828;DHT22;26549;50.918;5.338;2023-01-16T04:25:38;7.70;99.90
40828;DHT22;26549;50.918;5.338;2023-01-16T04:28:04;7.70;99.90
40828;DHT22;26549;50.918;5.338;2023-01-16T04:30:30;7.80;99.90
40828;DHT22;26549;50.918;5.338;2023-01-16T04:32:56;7.80;99.90
40828;DHT22;26549;50.918;5.338;2023-01-16T04:35:21;7.90;99.90
40828;DHT22;26549;50.918;5.338;2023-01-16T04:37:47;7.90;99.90
40828;DHT22;26549;50.918;5.338;2023-01-16T04:40:13;7.90;99.90
40828;DHT22;26549;50.918;5.338;2023-01-16T04:42:39;7.80;99.90
40828;DHT22;26549;50.918;5.338;2023-01-16T04:45:05;7.90;99.90
40828;DHT22;26549;50.918;5.338;2023-01-16T04:47:31;7.90;99.90
40828;DHT22;26549;50.918;5.338;2023-01-16T04:49:56;7.90;99.90
40828;DHT22;26549;50.918;5.338;2023-01-16T04:52:22;8.00;99.90
40828;DHT22;26549;50.918;5.338;2023-01-16T04:54:48;7.90;99.90
40828;DHT22;26549;50.918;5.338;2023-01-16T04:57:13;8.00;99.90
40828;DHT22;26549;50.918;5.338;2023-01-16T04:59:39;8.00;99.90
40828;DHT22;26549;50.918;5.338;2023-01-16T05:02:05;8.10;99.90
40828;DHT22;26549;50.918;5.338;2023-01-16T05:04:30;8.00;99.90
40828;DHT22;26549;50.918;5.338;2023-01-16T05:06:56;8.00;99.90
40828;DHT22;26549;50.918;5.338;2023-01-16T05:09:22;8.10;99.90
40828;DHT22;26549;50.918;5.338;2023-01-16T05:11:48;8.10;99.90
40828;DHT22;26549;50.918;5.338;2023-01-16T05:14:13;8.10;99.90
40828;DHT22;26549;50.918;5.338;2023-01-16T05:16:40;8.00;99.90
40828;DHT22;26549;50.918;5.338;2023-01-16T05:19:08;8.10;99.90
40828;DHT22;26549;50.918;5.338;2023-01-16T05:21:34;8.10;99.90
40828;DHT22;26549;50.918;5.338;2023-01-16T05:23:59;8.10;99.90
40828;DHT22;26549;50.918;5.338;2023-01-16T05:26:25;8.00;99.90
40828;DHT22;26549;50.918;5.338;2023-01-16T05:28:51;8.00;99.90
40828;DHT22;26549;50.918;5.338;2023-01-16T05:31:17;7.90;99.90
40828;DHT22;26549;50.918;5.338;2023-01-16T05:33:43;8.00;99.90
40828;DHT22;26549;50.918;5.338;2023-01-16T05:36:09;8.00;99.90
40828;DHT22;26549;50.918;5.338;2023-01-16T05:38:35;8.10;99.90
40828;DHT22;26549;50.918;5.338;2023-01-16T05:41:01;8.00;99.90
40828;DHT22;26549;50.918;5.338;2023-01-16T05:43:26;8.00;99.90
40828;DHT22;26549;50.918;5.338;2023-01-16T05:45:52;8.00;99.90
40828;DHT22;26549;50.918;5.338;2023-01-16T05:48:18;8.00;99.90
40828;DHT22;26549;50.918;5.338;2023-01-16T05:50:44;8.00;99.90
40828;DHT22;26549;50.918;5.338;2023-01-16T05:53:10;8.00;99.90
40828;DHT22;26549;50.918;5.338;2023-01-16T05:55:44;8.00;99.90
40828;DHT22;26549;50.918;5.338;2023-01-16T05:58:11;8.10;99.90
40828;DHT22;26549;50.918;5.338;2023-01-16T06:00:38;8.10;99.90
40828;DHT22;26549;50.918;5.338;2023-01-16T06:03:05;8.10;99.90
40828;DHT22;26549;50.918;5.338;2023-01-16T06:05:31;8.20;99.90
40828;DHT22;26549;50.918;5.338;2023-01-16T06:07:58;8.10;99.90
40828;DHT22;26549;50.918;5.338;2023-01-16T06:10:25;8.10;99.90
40828;DHT22;26549;50.918;5.338;2023-01-16T06:12:51;8.00;99.90
40828;DHT22;26549;50.918;5.338;2023-01-16T06:15:17;8.00;99.90
40828;DHT22;26549;50.918;5.338;2023-01-16T06:17:43;7.90;99.90
40828;DHT22;26549;50.918;5.338;2023-01-16T06:20:09;7.90;99.90
40828;DHT22;26549;50.918;5.338;2023-01-16T06:22:35;7.70;99.90
40828;DHT22;26549;50.918;5.338;2023-01-16T06:25:01;7.70;99.90
40828;DHT22;26549;50.918;5.338;2023-01-16T06:27:27;7.80;99.90
40828;DHT22;26549;50.918;5.338;2023-01-16T06:29:53;7.80;99.90
40828;DHT22;26549;50.918;5.338;2023-01-16T06:32:19;7.80;99.90
40828;DHT22;26549;50.918;5.338;2023-01-16T06:34:44;7.70;99.90
40828;DHT22;26549;50.918;5.338;2023-01-16T06:37:11;7.70;99.90
40828;DHT22;26549;50.918;5.338;2023-01-16T06:39:37;7.80;99.90
40828;DHT22;26549;50.918;5.338;2023-01-16T06:42:02;8.00;99.90
40828;DHT22;26549;50.918;5.338;2023-01-16T06:44:31;7.90;99.90
40828;DHT22;26549;50.918;5.338;2023-01-16T06:46:57;7.80;99.90
40828;DHT22;26549;50.918;5.338;2023-01-16T06:49:23;7.70;99.90
40828;DHT22;26549;50.918;5.338;2023-01-16T06:51:49;7.70;99.90
40828;DHT22;26549;50.918;5.338;2023-01-16T06:54:15;7.70;99.90
40828;DHT22;26549;50.918;5.338;2023-01-16T06:56:41;7.70;99.90
40828;DHT22;26549;50.918;5.338;2023-01-16T06:59:07;7.70;99.90
40828;DHT22;26549;50.918;5.338;2023-01-16T07:01:34;7.60;99.90
40828;DHT22;26549;50.918;5.338;2023-01-16T07:04:00;7.50;99.90
40828;DHT22;26549;50.918;5.338;2023-01-16T07:06:26;7.60;99.90
40828;DHT22;26549;50.918;5.338;2023-01-16T07:08:53;7.50;99.90
40828;DHT22;26549;50.918;5.338;2023-01-16T07:11:19;7.70;99.90
40828;DHT22;26549;50.918;5.338;2023-01-16T07:13:45;7.60;99.90
40828;DHT22;26549;50.918;5.338;2023-01-16T07:16:13;7.60;99.90
40828;DHT22;26549;50.918;5.338;2023-01-16T07:18:57;7.70;99.90
40828;DHT22;26549;50.918;5.338;2023-01-16T07:21:44;7.60;99.90
40828;DHT22;26549;50.918;5.338;2023-01-16T07:24:30;7.50;99.90
40828;DHT22;26549;50.918;5.338;2023-01-16T07:27:00;7.50;99.90
40828;DHT22;26549;50.918;5.338;2023-01-16T07:29:30;7.50;99.90
40828;DHT22;26549;50.918;5.338;2023-01-16T07:32:00;7.50;99.90
40828;DHT22;26549;50.918;5.338;2023-01-16T07:34:27;7.50;99.90
40828;DHT22;26549;50.918;5.338;2023-01-16T07:36:52;7.60;99.90
40828;DHT22;26549;50.918;5.338;2023-01-16T07:39:18;7.60;99.90
40828;DHT22;26549;50.918;5.338;2023-01-16T07:41:44;7.70;99.90
40828;DHT22;26549;50.918;5.338;2023-01-16T07:44:14;7.60;99.90
40828;DHT22;26549;50.918;5.338;2023-01-16T07:46:40;7.60;99.90
40828;DHT22;26549;50.918;5.338;2023-01-16T07:49:06;7.50;99.90
40828;DHT22;26549;50.918;5.338;2023-01-16T07:51:31;7.30;99.90
40828;DHT22;26549;50.918;5.338;2023-01-16T07:53:57;7.40;99.90
40828;DHT22;26549;50.918;5.338;2023-01-16T07:56:23;7.20;99.90
40828;DHT22;26549;50.918;5.338;2023-01-16T07:58:48;7.20;99.90
40828;DHT22;26549;50.918;5.338;2023-01-16T08:01:16;7.20;99.90
40828;DHT22;26549;50.918;5.338;2023-01-16T08:03:41;7.20;99.90
40828;DHT22;26549;50.918;5.338;2023-01-16T08:06:07;7.20;99.90
40828;DHT22;26549;50.918;5.338;2023-01-16T08:08:34;7.10;99.90
40828;DHT22;26549;50.918;5.338;2023-01-16T08:11:01;7.10;99.90
40828;DHT22;26549;50.918;5.338;2023-01-16T08:13:49;7.20;99.90
40828;DHT22;26549;50.918;5.338;2023-01-16T08:16:15;7.30;99.90
40828;DHT22;26549;50.918;5.338;2023-01-16T08:18:41;7.10;99.90
40828;DHT22;26549;50.918;5.338;2023-01-16T08:21:07;7.00;99.90
40828;DHT22;26549;50.918;5.338;2023-01-16T08:23:34;7.20;99.90
40828;DHT22;26549;50.918;5.338;2023-01-16T08:26:00;7.20;99.90
40828;DHT22;26549;50.918;5.338;2023-01-16T08:28:27;7.10;99.90
40828;DHT22;26549;50.918;5.338;2023-01-16T08:30:53;7.00;99.90
40828;DHT22;26549;50.918;5.338;2023-01-16T08:33:18;7.00;99.90
40828;DHT22;26549;50.918;5.338;2023-01-16T08:35:44;7.00;99.90
40828;DHT22;26549;50.918;5.338;2023-01-16T08:38:10;7.10;99.90
40828;DHT22;26549;50.918;5.338;2023-01-16T08:40:35;7.00;99.90
40828;DHT22;26549;50.918;5.338;2023-01-16T08:43:01;6.90;99.90
40828;DHT22;26549;50.918;5.338;2023-01-16T08:45:45;6.80;99.90
40828;DHT22;26549;50.918;5.338;2023-01-16T08:48:29;6.90;99.90
40828;DHT22;26549;50.918;5.338;2023-01-16T08:51:17;6.90;99.90
40828;DHT22;26549;50.918;5.338;2023-01-16T08:53:55;6.90;99.90
40828;DHT22;26549;50.918;5.338;2023-01-16T08:56:23;6.90;99.90
40828;DHT22;26549;50.918;5.338;2023-01-16T08:58:49;7.10;99.90
40828;DHT22;26549;50.918;5.338;2023-01-16T09:01:15;7.00;99.90
40828;DHT22;26549;50.918;5.338;2023-01-16T09:03:41;7.20;99.90
40828;DHT22;26549;50.918;5.338;2023-01-16T09:06:07;7.10;99.90
40828;DHT22;26549;50.918;5.338;2023-01-16T09:08:33;7.10;99.90
40828;DHT22;26549;50.918;5.338;2023-01-16T09:10:59;7.30;99.90
40828;DHT22;26549;50.918;5.338;2023-01-16T09:13:43;7.30;99.90
40828;DHT22;26549;50.918;5.338;2023-01-16T09:16:20;7.30;99.90
40828;DHT22;26549;50.918;5.338;2023-01-16T09:18:46;7.20;99.90
40828;DHT22;26549;50.918;5.338;2023-01-16T09:21:12;7.20;99.90
40828;DHT22;26549;50.918;5.338;2023-01-16T09:23:37;7.10;99.90
40828;DHT22;26549;50.918;5.338;2023-01-16T09:26:03;7.10;99.90
40828;DHT22;26549;50.918;5.338;2023-01-16T09:28:29;7.30;99.90
40828;DHT22;26549;50.918;5.338;2023-01-16T09:30:55;7.30;99.90
40828;DHT22;26549;50.918;5.338;2023-01-16T09:33:20;7.50;99.90
40828;DHT22;26549;50.918;5.338;2023-01-16T09:35:46;7.50;99.90
40828;DHT22;26549;50.918;5.338;2023-01-16T09:38:12;7.50;99.90
40828;DHT22;26549;50.918;5.338;2023-01-16T09:40:38;7.50;99.90
40828;DHT22;26549;50.918;5.338;2023-01-16T09:46:15;7.60;99.90
40828;DHT22;26549;50.918;5.338;2023-01-16T09:48:50;7.70;99.90
40828;DHT22;26549;50.918;5.338;2023-01-16T09:51:28;7.80;99.90
40828;DHT22;26549;50.918;5.338;2023-01-16T09:56:45;7.80;99.90
40828;DHT22;26549;50.918;5.338;2023-01-16T10:04:55;8.00;99.90
40828;DHT22;26549;50.918;5.338;2023-01-16T10:07:44;8.20;99.90
40828;DHT22;26549;50.918;5.338;2023-01-16T10:13:01;8.20;99.90
40828;DHT22;26549;50.918;5.338;2023-01-16T10:15:50;8.40;99.90
40828;DHT22;26549;50.918;5.338;2023-01-16T10:24:05;8.30;99.90
40828;DHT22;26549;50.918;5.338;2023-01-16T10:31:48;8.50;99.90
40828;DHT22;26549;50.918;5.338;2023-01-16T10:34:32;8.70;99.90
40828;DHT22;26549;50.918;5.338;2023-01-16T10:36:59;8.60;99.90
40828;DHT22;26549;50.918;5.338;2023-01-16T10:39:36;8.40;99.90
40828;DHT22;26549;50.918;5.338;2023-01-16T10:45:14;8.30;99.90
40828;DHT22;26549;50.918;5.338;2023-01-16T10:47:59;8.40;99.90
40828;DHT22;26549;50.918;5.338;2023-01-16T10:50:45;8.60;99.90
40828;DHT22;26549;50.918;5.338;2023-01-16T10:53:12;8.70;99.90
40828;DHT22;26549;50.918;5.338;2023-01-16T10:55:41;8.70;99.90
40828;DHT22;26549;50.918;5.338;2023-01-16T10:58:32;8.70;99.90
40828;DHT22;26549;50.918;5.338;2023-01-16T11:01:12;8.50;99.90
40828;DHT22;26549;50.918;5.338;2023-01-16T11:03:56;8.50;99.90
40828;DHT22;26549;50.918;5.338;2023-01-16T11:06:26;8.50;99.90
40828;DHT22;26549;50.918;5.338;2023-01-16T11:09:06;8.40;99.90
40828;DHT22;26549;50.918;5.338;2023-01-16T11:11:37;8.40;99.90
40828;DHT22;26549;50.918;5.338;2023-01-16T11:14:28;8.40;99.90
40828;DHT22;26549;50.918;5.338;2023-01-16T11:20:02;8.30;99.90
40828;DHT22;26549;50.918;5.338;2023-01-16T11:22:29;8.30;99.90
40828;DHT22;26549;50.918;5.338;2023-01-16T11:24:58;8.50;99.90
40828;DHT22;26549;50.918;5.338;2023-01-16T11:27:30;8.30;99.90
40828;DHT22;26549;50.918;5.338;2023-01-16T11:29:57;8.30;99.90
40828;DHT22;26549;50.918;5.338;2023-01-16T11:32:25;8.30;99.90
40828;DHT22;26549;50.918;5.338;2023-01-16T11:34:56;8.40;99.90
40828;DHT22;26549;50.918;5.338;2023-01-16T11:37:23;8.30;99.90
40828;DHT22;26549;50.918;5.338;2023-01-16T11:39:53;8.40;99.90
40828;DHT22;26549;50.918;5.338;2023-01-16T11:42:20;8.50;99.90
40828;DHT22;26549;50.918;5.338;2023-01-16T11:45:14;8.40;99.90
40828;DHT22;26549;50.918;5.338;2023-01-16T11:48:01;8.50;99.90
40828;DHT22;26549;50.918;5.338;2023-01-16T11:50:56;8.60;99.90
40828;DHT22;26549;50.918;5.338;2023-01-16T11:53:29;8.90;99.90
40828;DHT22;26549;50.918;5.338;2023-01-16T12:02:04;9.30;99.90
40828;DHT22;26549;50.918;5.338;2023-01-16T12:08:00;9.10;99.90
40828;DHT22;26549;50.918;5.338;2023-01-16T12:10:47;9.20;99.90
40828;DHT22;26549;50.918;5.338;2023-01-16T12:13:19;9.20;99.90
40828;DHT22;26549;50.918;5.338;2023-01-16T12:22:20;9.00;99.90
40828;DHT22;26549;50.918;5.338;2023-01-16T12:27:58;8.90;99.90
40828;DHT22;26549;50.918;5.338;2023-01-16T12:36:08;8.70;99.90
40828;DHT22;26549;50.918;5.338;2023-01-16T12:38:39;8.60;99.90
40828;DHT22;26549;50.918;5.338;2023-01-16T12:41:21;8.40;99.90
40828;DHT22;26549;50.918;5.338;2023-01-16T12:44:32;8.50;99.90
40828;DHT22;26549;50.918;5.338;2023-01-16T12:47:17;8.50;99.90
40828;DHT22;26549;50.918;5.338;2023-01-16T12:50:03;8.30;99.90
40828;DHT22;26549;50.918;5.338;2023-01-16T12:55:32;8.20;99.90
40828;DHT22;26549;50.918;5.338;2023-01-16T12:58:29;8.30;99.90
40828;DHT22;26549;50.918;5.338;2023-01-16T13:01:12;8.30;99.90
40828;DHT22;26549;50.918;5.338;2023-01-16T13:06:30;8.50;99.90
40828;DHT22;26549;50.918;5.338;2023-01-16T13:08:58;8.40;99.90
40828;DHT22;26549;50.918;5.338;2023-01-16T13:11:34;8.50;99.90
40828;DHT22;26549;50.918;5.338;2023-01-16T13:14:23;8.40;99.90
40828;DHT22;26549;50.918;5.338;2023-01-16T13:17:09;8.50;99.90
40828;DHT22;26549;50.918;5.338;2023-01-16T13:19:39;8.50;99.90
40828;DHT22;26549;50.918;5.338;2023-01-16T13:24:43;8.70;99.90
40828;DHT22;26549;50.918;5.338;2023-01-16T13:27:17;8.80;99.90
40828;DHT22;26549;50.918;5.338;2023-01-16T13:29:53;8.80;99.90
40828;DHT22;26549;50.918;5.338;2023-01-16T13:32:29;8.80;99.90
40828;DHT22;26549;50.918;5.338;2023-01-16T13:35:20;8.80;99.90
40828;DHT22;26549;50.918;5.338;2023-01-16T13:46:33;8.90;99.90
40828;DHT22;26549;50.918;5.338;2023-01-16T13:49:03;8.90;99.90
40828;DHT22;26549;50.918;5.338;2023-01-16T13:51:30;8.90;99.90
40828;DHT22;26549;50.918;5.338;2023-01-16T13:53:59;8.80;99.90
40828;DHT22;26549;50.918;5.338;2023-01-16T13:56:28;8.80;99.90
40828;DHT22;26549;50.918;5.338;2023-01-16T13:59:04;8.80;99.90
40828;DHT22;26549;50.918;5.338;2023-01-16T14:07:00;9.00;99.90
40828;DHT22;26549;50.918;5.338;2023-01-16T14:10:07;9.10;99.90
40828;DHT22;26549;50.918;5.338;2023-01-16T14:12:58;8.90;99.90
40828;DHT22;26549;50.918;5.338;2023-01-16T14:15:25;8.90;99.90
40828;DHT22;26549;50.918;5.338;2023-01-16T14:18:20;8.90;99.90
40828;DHT22;26549;50.918;5.338;2023-01-16T14:20:52;8.80;99.90
40828;DHT22;26549;50.918;5.338;2023-01-16T14:23:34;8.90;99.90
40828;DHT22;26549;50.918;5.338;2023-01-16T14:26:38;8.80;99.90
40828;DHT22;26549;50.918;5.338;2023-01-16T14:31:59;8.70;99.90
40828;DHT22;26549;50.918;5.338;2023-01-16T14:34:37;8.80;99.90
40828;DHT22;26549;50.918;5.338;2023-01-16T14:40:16;8.60;99.90
40828;DHT22;26549;50.918;5.338;2023-01-16T14:42:52;8.60;99.90
40828;DHT22;26549;50.918;5.338;2023-01-16T14:45:39;8.50;99.90
40828;DHT22;26549;50.918;5.338;2023-01-16T14:53:59;8.50;99.90
40828;DHT22;26549;50.918;5.338;2023-01-16T14:56:47;8.50;99.90
40828;DHT22;26549;50.918;5.338;2023-01-16T14:59:27;8.40;99.90
40828;DHT22;26549;50.918;5.338;2023-01-16T15:02:28;8.40;99.90
40828;DHT22;26549;50.918;5.338;2023-01-16T15:05:08;8.30;99.90
40828;DHT22;26549;50.918;5.338;2023-01-16T15:12:50;8.50;99.90
40828;DHT22;26549;50.918;5.338;2023-01-16T15:17:52;8.60;99.90
40828;DHT22;26549;50.918;5.338;2023-01-16T15:20:37;8.70;99.90
40828;DHT22;26549;50.918;5.338;2023-01-16T15:23:33;8.60;99.90
40828;DHT22;26549;50.918;5.338;2023-01-16T15:31:16;8.50;99.90
40828;DHT22;26549;50.918;5.338;2023-01-16T15:33:43;8.60;99.90
40828;DHT22;26549;50.918;5.338;2023-01-16T15:36:23;8.70;99.90
40828;DHT22;26549;50.918;5.338;2023-01-16T15:38:56;8.60;99.90
40828;DHT22;26549;50.918;5.338;2023-01-16T15:41:30;8.60;99.90
40828;DHT22;26549;50.918;5.338;2023-01-16T15:44:17;8.70;99.90
40828;DHT22;26549;50.918;5.338;2023-01-16T15:52:43;8.50;99.90
40828;DHT22;26549;50.918;5.338;2023-01-16T15:55:21;8.60;99.90
40828;DHT22;26549;50.918;5.338;2023-01-16T15:57:52;8.50;99.90
40828;DHT22;26549;50.918;5.338;2023-01-16T16:00:29;8.60;99.90
40828;DHT22;26549;50.918;5.338;2023-01-16T16:02:57;8.50;99.90
40828;DHT22;26549;50.918;5.338;2023-01-16T16:05:24;8.60;99.90
40828;DHT22;26549;50.918;5.338;2023-01-16T16:07:51;8.70;99.90
40828;DHT22;26549;50.918;5.338;2023-01-16T16:10:18;8.60;99.90
40828;DHT22;26549;50.918;5.338;2023-01-16T16:13:05;8.60;99.90
40828;DHT22;26549;50.918;5.338;2023-01-16T16:15:32;8.60;99.90
40828;DHT22;26549;50.918;5.338;2023-01-16T16:18:18;8.60;99.90
40828;DHT22;26549;50.918;5.338;2023-01-16T16:20:47;8.50;99.90
40828;DHT22;26549;50.918;5.338;2023-01-16T16:23:24;8.60;99.90
40828;DHT22;26549;50.918;5.338;2023-01-16T16:25:58;8.60;99.90
40828;DHT22;26549;50.918;5.338;2023-01-16T16:28:37;8.60;99.90
40828;DHT22;26549;50.918;5.338;2023-01-16T16:31:27;8.70;99.90
40828;DHT22;26549;50.918;5.338;2023-01-16T16:34:19;8.60;99.90
40828;DHT22;26549;50.918;5.338;2023-01-16T16:36:46;8.50;99.90
40828;DHT22;26549;50.918;5.338;2023-01-16T16:42:45;8.60;99.90
40828;DHT22;26549;50.918;5.338;2023-01-16T16:45:24;8.50;99.90
40828;DHT22;26549;50.918;5.338;2023-01-16T16:48:22;8.50;99.90
40828;DHT22;26549;50.918;5.338;2023-01-16T16:51:17;8.50;99.90
40828;DHT22;26549;50.918;5.338;2023-01-16T16:53:45;8.40;99.90
40828;DHT22;26549;50.918;5.338;2023-01-16T16:56:14;8.50;99.90
40828;DHT22;26549;50.918;5.338;2023-01-16T16:58:46;8.60;99.90
40828;DHT22;26549;50.918;5.338;2023-01-16T17:01:14;8.40;99.90
40828;DHT22;26549;50.918;5.338;2023-01-16T17:03:41;8.50;99.90
40828;DHT22;26549;50.918;5.338;2023-01-16T17:06:12;8.50;99.90
40828;DHT22;26549;50.918;5.338;2023-01-16T17:08:39;8.20;99.90
40828;DHT22;26549;50.918;5.338;2023-01-16T17:11:05;8.30;99.90
40828;DHT22;26549;50.918;5.338;2023-01-16T17:13:31;8.30;99.90
40828;DHT22;26549;50.918;5.338;2023-01-16T17:15:57;8.20;99.90
40828;DHT22;26549;50.918;5.338;2023-01-16T17:18:25;8.30;99.90
40828;DHT22;26549;50.918;5.338;2023-01-16T17:20:51;8.10;99.90
40828;DHT22;26549;50.918;5.338;2023-01-16T17:23:18;8.00;99.90
40828;DHT22;26549;50.918;5.338;2023-01-16T17:25:44;7.90;99.90
40828;DHT22;26549;50.918;5.338;2023-01-16T17:28:10;7.70;99.90
40828;DHT22;26549;50.918;5.338;2023-01-16T17:30:36;7.60;99.90
40828;DHT22;26549;50.918;5.338;2023-01-16T17:33:17;7.50;99.90
40828;DHT22;26549;50.918;5.338;2023-01-16T17:35:46;7.50;99.90
40828;DHT22;26549;50.918;5.338;2023-01-16T17:38:18;7.50;99.90
40828;DHT22;26549;50.918;5.338;2023-01-16T17:40:44;7.50;99.90
40828;DHT22;26549;50.918;5.338;2023-01-16T17:43:15;7.30;99.90
40828;DHT22;26549;50.918;5.338;2023-01-16T17:46:03;7.20;99.90
40828;DHT22;26549;50.918;5.338;2023-01-16T17:48:30;7.00;99.90
40828;DHT22;26549;50.918;5.338;2023-01-16T17:50:57;7.00;99.90
40828;DHT22;26549;50.918;5.338;2023-01-16T17:53:25;7.10;99.90
40828;DHT22;26549;50.918;5.338;2023-01-16T17:55:54;7.20;99.90
40828;DHT22;26549;50.918;5.338;2023-01-16T17:58:25;7.10;99.90
40828;DHT22;26549;50.918;5.338;2023-01-16T18:01:03;6.90;99.90
40828;DHT22;26549;50.918;5.338;2023-01-16T18:03:30;7.10;99.90
40828;DHT22;26549;50.918;5.338;2023-01-16T18:06:01;6.90;99.90
40828;DHT22;26549;50.918;5.338;2023-01-16T18:08:27;6.70;99.90
40828;DHT22;26549;50.918;5.338;2023-01-16T18:10:53;6.70;99.90
40828;DHT22;26549;50.918;5.338;2023-01-16T18:13:19;6.70;99.90
40828;DHT22;26549;50.918;5.338;2023-01-16T18:16:05;6.70;99.90
40828;DHT22;26549;50.918;5.338;2023-01-16T18:18:49;6.70;99.90
40828;DHT22;26549;50.918;5.338;2023-01-16T18:21:15;6.80;99.90
40828;DHT22;26549;50.918;5.338;2023-01-16T18:24:00;7.00;99.90
40828;DHT22;26549;50.918;5.338;2023-01-16T18:26:26;6.90;99.90
40828;DHT22;26549;50.918;5.338;2023-01-16T18:28:52;7.00;99.90
40828;DHT22;26549;50.918;5.338;2023-01-16T18:31:19;6.80;99.90
40828;DHT22;26549;50.918;5.338;2023-01-16T18:33:45;6.70;99.90
40828;DHT22;26549;50.918;5.338;2023-01-16T18:36:17;6.90;99.90
40828;DHT22;26549;50.918;5.338;2023-01-16T18:38:43;7.00;99.90
40828;DHT22;26549;50.918;5.338;2023-01-16T18:41:27;7.00;99.90
40828;DHT22;26549;50.918;5.338;2023-01-16T18:44:11;6.90;99.90
40828;DHT22;26549;50.918;5.338;2023-01-16T18:46:55;6.90;99.90
40828;DHT22;26549;50.918;5.338;2023-01-16T18:49:39;6.60;99.90